sensor_id;sensor_type;location;lat;lon;timestamp;P1;P2;P0
47711;PMS7003;57457;51.634;5.886;2023-04-03T00:08:10;10.33;11.35;5.46
47711;PMS7003;57457;51.634;5.886;2023-04-03T00:21:30;6.61;9.17;4.8
47711;PMS7003;57457;51.634;5.886;2023-04-03T00:34:51;10.81;12.0;5.46
47711;PMS7003;57457;51.634;5.886;2023-04-03T00:48:11;7.09;9.6;4.91
47711;PMS7003;57457;51.634;5.886;2023-04-03T01:01:32;7.09;8.84;4.8
47711;PMS7003;57457;51.634;5.886;2023-04-03T01:28:12;6.73;9.06;4.26
47711;PMS7003;57457;51.634;5.886;2023-04-03T01:41:32;5.77;7.75;3.61
47711;PMS7003;57457;51.634;5.886;2023-04-03T01:54:53;7.09;7.75;3.82
47711;PMS7003;57457;51.634;5.886;2023-04-03T02:08:13;4.57;7.09;3.93
47711;PMS7003;57457;51.634;5.886;2023-04-03T02:21:34;4.33;6.77;3.39
47711;PMS7003;57457;51.634;5.886;2023-04-03T02:34:55;2.64;5.46;3.28
47711;PMS7003;57457;51.634;5.886;2023-04-03T02:48:17;4.69;5.68;3.17
47711;PMS7003;57457;51.634;5.886;2023-04-03T03:01:37;5.29;5.68;2.62
47711;PMS7003;57457;51.634;5.886;2023-04-03T03:14:58;5.65;6.11;3.28
47711;PMS7003;57457;51.634;5.886;2023-04-03T03:28:18;2.28;5.24;2.84
47711;PMS7003;57457;51.634;5.886;2023-04-03T03:41:39;2.28;5.35;2.52
47711;PMS7003;57457;51.634;5.886;2023-04-03T03:54:59;2.88;4.48;2.3
47711;PMS7003;57457;51.634;5.886;2023-04-03T04:08:20;1.8;4.8;2.41
47711;PMS7003;57457;51.634;5.886;2023-04-03T04:21:42;4.57;4.91;2.3
47711;PMS7003;57457;51.634;5.886;2023-04-03T04:35:03;4.09;3.93;2.19
47711;PMS7003;57457;51.634;5.886;2023-04-03T04:48:24;1.44;4.26;2.3
47711;PMS7003;57457;51.634;5.886;2023-04-03T05:01:44;1.44;4.37;2.19
47711;PMS7003;57457;51.634;5.886;2023-04-03T05:15:04;4.21;4.91;2.41
47711;PMS7003;57457;51.634;5.886;2023-04-03T05:28:24;1.08;3.93;2.08
47711;PMS7003;57457;51.634;5.886;2023-04-03T05:41:45;1.2;4.04;2.19
47711;PMS7003;57457;51.634;5.886;2023-04-03T05:55:06;0.48;3.61;1.97
47711;PMS7003;57457;51.634;5.886;2023-04-03T06:08:28;1.2;4.37;2.52
47711;PMS7003;57457;51.634;5.886;2023-04-03T06:21:49;0.6;3.82;2.3
47711;PMS7003;57457;51.634;5.886;2023-04-03T06:35:09;1.56;4.04;1.86
47711;PMS7003;57457;51.634;5.886;2023-04-03T06:48:31;2.88;4.37;1.97
47711;PMS7003;57457;51.634;5.886;2023-04-03T07:01:50;1.8;3.5;1.97
47711;PMS7003;57457;51.634;5.886;2023-04-03T07:15:12;2.64;3.06;1.97
47711;PMS7003;57457;51.634;5.886;2023-04-03T07:28:31;1.8;4.15;1.86
47711;PMS7003;57457;51.634;5.886;2023-04-03T07:41:53;0.01;2.95;1.75
47711;PMS7003;57457;51.634;5.886;2023-04-03T07:55:13;0.01;2.73;1.75
47711;PMS7003;57457;51.634;5.886;2023-04-03T08:08:34;0.01;2.84;1.86
47711;PMS7003;57457;51.634;5.886;2023-04-03T08:21:54;2.52;3.17;1.75
47711;PMS7003;57457;51.634;5.886;2023-04-03T08:35:14;0.01;2.08;1.32
47711;PMS7003;57457;51.634;5.886;2023-04-03T08:48:35;0.01;1.97;
47711;PMS7003;57457;51.634;5.886;2023-04-03T09:01:56;0.01;1.97;
47711;PMS7003;57457;51.634;5.886;2023-04-03T09:15:18;0.01;1.97;
47711;PMS7003;57457;51.634;5.886;2023-04-03T09:41:59;0.01;1.43;
47711;PMS7003;57457;51.634;5.886;2023-04-03T09:55:19;0.01;1.21;
47711;PMS7003;57457;51.634;5.886;2023-04-03T10:22:00;0.01;1.75;
47711;PMS7003;57457;51.634;5.886;2023-04-03T10:35:20;0.01;1.32;
47711;PMS7003;57457;51.634;5.886;2023-04-03T10:48:40;0.01;1.21;
47711;PMS7003;57457;51.634;5.886;2023-04-03T11:01:59;;;
47711;PMS7003;57457;51.634;5.886;2023-04-03T11:15:21;0.01;1.21;
47711;PMS7003;57457;51.634;5.886;2023-04-03T11:28:41;0.01;1.43;
47711;PMS7003;57457;51.634;5.886;2023-04-03T11:42:00;0.01;1.75;
47711;PMS7003;57457;51.634;5.886;2023-04-03T11:55:22;0.24;1.43;
47711;PMS7003;57457;51.634;5.886;2023-04-03T12:22:03;0.01;1.64;1.32
47711;PMS7003;57457;51.634;5.886;2023-04-03T12:35:23;0.0;1.64;
47711;PMS7003;57457;51.634;5.886;2023-04-03T12:48:44;0.01;1.54;
47711;PMS7003;57457;51.634;5.886;2023-04-03T13:02:04;0.01;1.64;
47711;PMS7003;57457;51.634;5.886;2023-04-03T13:15:25;0.01;1.54;
47711;PMS7003;57457;51.634;5.886;2023-04-03T13:28:47;0.01;1.97;1.32
47711;PMS7003;57457;51.634;5.886;2023-04-03T13:42:08;0.01;1.97;
47711;PMS7003;57457;51.634;5.886;2023-04-03T13:55:29;0.01;1.86;
47711;PMS7003;57457;51.634;5.886;2023-04-03T14:08:49;0.01;1.86;1.32
47711;PMS7003;57457;51.634;5.886;2023-04-03T14:22:11;0.01;1.43;1.21
47711;PMS7003;57457;51.634;5.886;2023-04-03T14:35:30;0.01;1.75;
47711;PMS7003;57457;51.634;5.886;2023-04-03T14:48:50;0.01;1.64;
47711;PMS7003;57457;51.634;5.886;2023-04-03T15:02:12;0.01;1.54;1.21
47711;PMS7003;57457;51.634;5.886;2023-04-03T15:15:33;0.01;1.75;1.21
47711;PMS7003;57457;51.634;5.886;2023-04-03T15:28:54;0.01;1.75;1.21
47711;PMS7003;57457;51.634;5.886;2023-04-03T15:55:37;0.0;1.86;
47711;PMS7003;57457;51.634;5.886;2023-04-03T16:08:58;0.01;1.64;
47711;PMS7003;57457;51.634;5.886;2023-04-03T16:22:20;0.01;1.54;
47711;PMS7003;57457;51.634;5.886;2023-04-03T16:35:40;0.12;1.54;1.32
47711;PMS7003;57457;51.634;5.886;2023-04-03T16:49:01;0.01;1.97;1.21
47711;PMS7003;57457;51.634;5.886;2023-04-03T17:02:22;0.01;2.08;
47711;PMS7003;57457;51.634;5.886;2023-04-03T17:15:42;0.01;2.52;1.43
47711;PMS7003;57457;51.634;5.886;2023-04-03T17:29:02;0.01;2.52;1.32
47711;PMS7003;57457;51.634;5.886;2023-04-03T17:42:23;0.01;2.73;1.43
47711;PMS7003;57457;51.634;5.886;2023-04-03T17:55:43;1.56;2.84;1.54
47711;PMS7003;57457;51.634;5.886;2023-04-03T18:09:03;0.01;1.86;1.32
47711;PMS7003;57457;51.634;5.886;2023-04-03T18:22:24;0.6;2.62;1.54
47711;PMS7003;57457;51.634;5.886;2023-04-03T18:35:44;0.01;2.62;1.75
47711;PMS7003;57457;51.634;5.886;2023-04-03T18:49:06;0.01;2.84;1.75
47711;PMS7003;57457;51.634;5.886;2023-04-03T19:02:25;4.21;3.28;1.75
47711;PMS7003;57457;51.634;5.886;2023-04-03T19:15:45;0.01;2.41;1.64
47711;PMS7003;57457;51.634;5.886;2023-04-03T19:29:07;1.44;3.06;1.75
47711;PMS7003;57457;51.634;5.886;2023-04-03T19:42:28;1.32;3.28;1.75
47711;PMS7003;57457;51.634;5.886;2023-04-03T19:55:48;2.28;4.15;2.08
47711;PMS7003;57457;51.634;5.886;2023-04-03T20:09:08;0.72;3.5;1.86
47711;PMS7003;57457;51.634;5.886;2023-04-03T20:22:29;1.56;3.39;1.75
47711;PMS7003;57457;51.634;5.886;2023-04-03T20:35:50;2.88;3.5;1.86
47711;PMS7003;57457;51.634;5.886;2023-04-03T20:49:12;1.32;4.26;2.19
47711;PMS7003;57457;51.634;5.886;2023-04-03T21:02:33;1.2;4.15;2.19
47711;PMS7003;57457;51.634;5.886;2023-04-03T21:29:14;1.08;3.93;2.08
47711;PMS7003;57457;51.634;5.886;2023-04-03T21:42:36;2.4;4.37;2.08
47711;PMS7003;57457;51.634;5.886;2023-04-03T21:55:57;0.0;2.95;1.86
47711;PMS7003;57457;51.634;5.886;2023-04-03T22:09:18;0.6;3.61;2.08
47711;PMS7003;57457;51.634;5.886;2023-04-03T22:22:38;1.2;3.93;1.97
47711;PMS7003;57457;51.634;5.886;2023-04-03T22:36:00;0.72;3.93;2.19
47711;PMS7003;57457;51.634;5.886;2023-04-03T22:49:21;1.68;4.48;2.62
47711;PMS7003;57457;51.634;5.886;2023-04-03T23:02:43;0.96;3.93;2.19
47711;PMS7003;57457;51.634;5.886;2023-04-03T23:16:02;3.6;4.59;2.19
47711;PMS7003;57457;51.634;5.886;2023-04-03T23:29:22;1.8;4.26;2.3
47711;PMS7003;57457;51.634;5.886;2023-04-03T23:42:44;3.6;4.15;2.08
47711;PMS7003;57457;51.634;5.886;2023-04-03T23:56:03;1.92;4.48;2.41
